createdAt,value
2022-11-21T00:00:51.647Z,4.70
2022-11-21T00:03:19.505Z,4.60
2022-11-21T00:05:48.798Z,4.60
2022-11-21T00:08:17.915Z,4.60
2022-11-21T00:10:46.122Z,4.60
2022-11-21T00:13:16.562Z,4.60
2022-11-21T00:15:44.411Z,4.70
2022-11-21T00:18:12.844Z,4.60
2022-11-21T00:20:40.830Z,4.60
2022-11-21T00:23:08.780Z,4.70
2022-11-21T00:25:36.873Z,4.70
2022-11-21T00:28:04.985Z,4.70
2022-11-21T00:30:34.499Z,4.60
2022-11-21T00:33:02.326Z,4.70
2022-11-21T00:35:30.197Z,4.70
2022-11-21T00:37:58.067Z,4.70
2022-11-21T00:40:25.942Z,4.70
2022-11-21T00:42:54.000Z,4.70
2022-11-21T00:45:24.535Z,4.60
2022-11-21T00:47:54.068Z,4.60
2022-11-21T00:50:21.944Z,4.60
2022-11-21T00:52:49.857Z,4.60
2022-11-21T00:55:17.841Z,4.60
2022-11-21T00:57:45.803Z,4.60
2022-11-21T01:00:14.942Z,4.60
2022-11-21T01:02:42.818Z,4.60
2022-11-21T01:05:12.110Z,4.60
2022-11-21T01:07:40.135Z,4.60
2022-11-21T01:10:08.861Z,4.60
2022-11-21T01:12:36.883Z,4.70
2022-11-21T01:15:05.278Z,4.70
2022-11-21T01:17:33.958Z,4.70
2022-11-21T01:20:01.828Z,4.80
2022-11-21T01:22:31.046Z,4.70
2022-11-21T01:24:58.913Z,4.70
2022-11-21T01:27:26.861Z,4.80
2022-11-21T01:29:54.734Z,4.80
2022-11-21T01:32:22.678Z,4.80
2022-11-21T01:34:50.579Z,4.90
2022-11-21T01:37:18.470Z,4.90
2022-11-21T01:39:47.863Z,5.00
2022-11-21T01:42:15.715Z,5.00
2022-11-21T01:44:50.803Z,5.00
2022-11-21T01:47:18.721Z,5.00
2022-11-21T01:49:46.697Z,4.90
2022-11-21T01:52:15.938Z,5.00
2022-11-21T01:54:45.275Z,5.00
2022-11-21T01:57:15.908Z,5.00
2022-11-21T01:59:46.648Z,4.90
2022-11-21T02:02:14.884Z,5.00
2022-11-21T02:04:43.100Z,4.90
2022-11-21T02:07:11.015Z,4.90
2022-11-21T02:09:40.051Z,5.00
2022-11-21T02:12:09.962Z,5.00
2022-11-21T02:14:39.260Z,5.00
2022-11-21T02:17:07.779Z,5.00
2022-11-21T02:19:38.167Z,5.00
2022-11-21T02:22:08.593Z,5.00
2022-11-21T02:24:39.397Z,5.00
2022-11-21T02:27:08.704Z,5.00
2022-11-21T02:29:36.829Z,5.00
2022-11-21T02:32:05.794Z,5.00
2022-11-21T02:34:33.875Z,5.00
2022-11-21T02:37:01.720Z,5.00
2022-11-21T02:39:31.504Z,4.90
2022-11-21T02:42:02.781Z,4.90
2022-11-21T02:44:33.885Z,4.90
2022-11-21T02:47:01.759Z,4.90
2022-11-21T02:49:36.696Z,4.90
2022-11-21T02:52:04.696Z,4.90
2022-11-21T02:54:32.569Z,4.90
2022-11-21T02:57:00.427Z,4.90
2022-11-21T02:59:28.322Z,4.90
2022-11-21T03:01:59.732Z,4.90
2022-11-21T03:04:27.861Z,4.90
2022-11-21T03:06:55.866Z,4.80
2022-11-21T03:09:23.804Z,4.90
2022-11-21T03:11:51.668Z,4.90
2022-11-21T03:14:19.541Z,4.90
2022-11-21T03:16:47.429Z,4.90
2022-11-21T03:19:16.679Z,4.90
2022-11-21T03:21:44.552Z,4.90
2022-11-21T03:24:12.630Z,4.90
2022-11-21T03:26:40.517Z,4.90
2022-11-21T03:29:08.811Z,4.90
2022-11-21T03:31:36.690Z,4.90
2022-11-21T03:34:04.670Z,4.90
2022-11-21T03:36:33.895Z,4.90
2022-11-21T03:39:02.116Z,4.90
2022-11-21T03:41:32.841Z,4.90
2022-11-21T03:44:01.154Z,4.90
2022-11-21T03:46:29.334Z,4.90
2022-11-21T03:48:57.390Z,5.00
2022-11-21T03:51:25.251Z,5.00
2022-11-21T03:53:54.459Z,5.00
2022-11-21T03:56:22.293Z,5.00
2022-11-21T03:58:50.201Z,5.00
2022-11-21T04:01:18.342Z,5.00
2022-11-21T04:03:46.454Z,5.00
2022-11-21T04:06:15.178Z,5.00
2022-11-21T04:08:43.069Z,5.00
2022-11-21T04:11:12.400Z,5.00
2022-11-21T04:13:40.271Z,5.10
2022-11-21T04:16:08.157Z,5.20
2022-11-21T04:18:36.214Z,5.20
2022-11-21T04:21:05.603Z,5.20
2022-11-21T04:23:33.672Z,5.20
2022-11-21T04:26:01.539Z,5.20
2022-11-21T04:28:31.329Z,5.10
2022-11-21T04:31:07.025Z,5.00
2022-11-21T04:33:38.070Z,5.00
2022-11-21T04:36:06.271Z,4.90
2022-11-21T04:38:34.146Z,4.90
2022-11-21T04:41:02.043Z,4.90
2022-11-21T04:43:31.240Z,4.90
2022-11-21T04:45:59.106Z,5.00
2022-11-21T04:48:26.972Z,5.00
2022-11-21T04:50:54.865Z,4.90
2022-11-21T04:53:22.743Z,4.90
2022-11-21T04:55:50.623Z,4.90
2022-11-21T04:58:18.520Z,4.80
2022-11-21T05:00:47.786Z,4.80
2022-11-21T05:03:15.641Z,4.80
2022-11-21T05:05:43.511Z,5.00
2022-11-21T05:08:11.403Z,4.90
2022-11-21T05:10:53.188Z,4.90
2022-11-21T05:13:23.742Z,4.90
2022-11-21T05:15:57.626Z,4.80
2022-11-21T05:18:25.545Z,4.80
2022-11-21T05:20:53.411Z,4.90
2022-11-21T05:23:21.307Z,4.90
2022-11-21T05:25:49.199Z,4.90
2022-11-21T05:28:17.060Z,4.90
2022-11-21T05:30:44.956Z,4.90
2022-11-21T05:33:14.203Z,4.90
2022-11-21T05:35:43.545Z,4.90
2022-11-21T05:38:11.710Z,4.90
2022-11-21T05:40:39.602Z,4.90
2022-11-21T05:43:25.179Z,4.90
2022-11-21T05:45:53.109Z,4.90
2022-11-21T05:48:22.384Z,4.80
2022-11-21T05:50:50.467Z,4.80
2022-11-21T05:53:18.516Z,4.90
2022-11-21T05:55:46.486Z,4.70
2022-11-21T05:58:14.363Z,4.70
2022-11-21T06:00:42.302Z,4.80
2022-11-21T06:03:27.912Z,4.80
2022-11-21T06:06:04.602Z,4.80
2022-11-21T06:08:33.282Z,4.80
2022-11-21T06:11:01.162Z,4.70
2022-11-21T06:13:29.109Z,4.60
2022-11-21T06:16:00.438Z,4.50
2022-11-21T06:18:28.428Z,4.40
2022-11-21T06:21:01.238Z,4.40
2022-11-21T06:23:30.465Z,4.40
2022-11-21T06:25:59.146Z,4.40
2022-11-21T06:28:27.219Z,4.20
2022-11-21T06:30:55.078Z,4.30
2022-11-21T06:33:22.936Z,4.10
2022-11-21T06:35:50.824Z,4.00
2022-11-21T06:38:19.723Z,4.00
2022-11-21T06:40:48.977Z,4.00
2022-11-21T06:43:16.890Z,4.10
2022-11-21T06:45:44.823Z,4.10
2022-11-21T06:48:12.708Z,4.20
2022-11-21T06:50:40.576Z,4.10
2022-11-21T06:53:08.422Z,3.90
2022-11-21T06:55:36.313Z,3.90
2022-11-21T06:58:05.612Z,4.00
2022-11-21T07:00:33.513Z,3.90
2022-11-21T07:03:03.459Z,3.70
2022-11-21T07:05:31.799Z,3.40
2022-11-21T07:08:00.264Z,2.70
2022-11-21T07:10:28.140Z,2.70
2022-11-21T07:13:16.060Z,2.50
2022-11-21T07:15:45.515Z,2.50
2022-11-21T07:18:13.387Z,2.40
2022-11-21T07:20:41.411Z,2.40
2022-11-21T07:23:09.577Z,2.40
2022-11-21T07:25:37.704Z,2.30
2022-11-21T07:28:05.754Z,2.40
2022-11-21T07:30:33.647Z,2.60
2022-11-21T07:33:03.498Z,2.80
2022-11-21T07:35:31.362Z,2.80
2022-11-21T07:37:59.236Z,2.70
2022-11-21T07:40:27.110Z,2.60
2022-11-21T07:42:55.052Z,2.80
2022-11-21T07:45:22.921Z,2.80
2022-11-21T07:47:59.177Z,2.70
2022-11-21T07:50:28.547Z,2.60
2022-11-21T07:52:59.161Z,2.70
2022-11-21T07:55:28.175Z,2.70
2022-11-21T07:58:00.253Z,2.80
2022-11-21T08:00:28.169Z,2.90
2022-11-21T08:02:56.085Z,2.80
2022-11-21T08:05:24.112Z,3.00
2022-11-21T08:07:53.378Z,3.10
2022-11-21T08:10:21.368Z,3.10
2022-11-21T08:12:49.254Z,2.70
2022-11-21T08:15:17.176Z,2.80
2022-11-21T08:17:45.259Z,3.00
2022-11-21T08:20:13.306Z,2.70
2022-11-21T08:22:41.550Z,2.70
2022-11-21T08:25:11.395Z,2.80
2022-11-21T08:27:39.423Z,2.90
2022-11-21T08:30:08.179Z,3.00
2022-11-21T08:32:36.061Z,3.10
2022-11-21T08:35:04.279Z,3.30
2022-11-21T08:37:32.155Z,3.30
2022-11-21T08:40:00.727Z,3.40
2022-11-21T08:42:29.971Z,3.30
2022-11-21T08:44:57.831Z,3.40
2022-11-21T08:47:25.707Z,4.10
2022-11-21T08:49:53.740Z,4.10
2022-11-21T08:52:21.614Z,4.20
2022-11-21T08:54:49.490Z,4.20
2022-11-21T08:57:17.532Z,4.00
2022-11-21T08:59:46.829Z,4.00
2022-11-21T09:02:14.735Z,3.90
2022-11-21T09:04:42.656Z,4.10
2022-11-21T09:07:10.580Z,4.40
2022-11-21T09:09:38.494Z,4.40
2022-11-21T09:12:06.889Z,4.50
2022-11-21T09:14:52.157Z,4.50
2022-11-21T09:17:39.056Z,4.50
2022-11-21T09:20:07.683Z,4.40
2022-11-21T09:22:35.578Z,4.50
2022-11-21T09:25:03.484Z,4.50
2022-11-21T09:27:31.668Z,4.60
2022-11-21T09:29:59.584Z,4.60
2022-11-21T09:32:28.813Z,4.70
2022-11-21T09:34:56.780Z,4.70
2022-11-21T09:37:24.926Z,4.70
2022-11-21T09:39:52.843Z,4.80
2022-11-21T09:42:31.883Z,5.20
2022-11-21T09:45:04.693Z,5.10
2022-11-21T09:47:34.505Z,5.00
2022-11-21T09:50:03.164Z,5.10
2022-11-21T09:52:38.614Z,4.80
2022-11-21T09:55:07.766Z,4.70
2022-11-21T09:57:36.449Z,4.70
2022-11-21T10:00:06.291Z,4.50
2022-11-21T10:02:35.546Z,4.50
2022-11-21T10:05:03.430Z,4.50
2022-11-21T10:07:33.115Z,4.60
2022-11-21T10:10:09.986Z,4.60
2022-11-21T10:12:40.768Z,4.60
2022-11-21T10:15:19.024Z,4.60
2022-11-21T10:17:57.064Z,4.50
2022-11-21T10:20:34.959Z,4.40
2022-11-21T10:23:20.446Z,4.30
2022-11-21T10:25:51.793Z,4.20
2022-11-21T10:28:21.608Z,4.30
2022-11-21T10:30:49.497Z,4.50
2022-11-21T10:33:21.513Z,4.60
2022-11-21T10:35:51.566Z,4.70
2022-11-21T10:38:22.016Z,5.30
2022-11-21T10:40:51.759Z,6.50
2022-11-21T10:43:43.207Z,6.20
2022-11-21T10:46:11.131Z,5.90
2022-11-21T10:48:40.361Z,5.80
2022-11-21T10:51:19.094Z,5.70
2022-11-21T10:54:07.853Z,5.70
2022-11-21T10:56:36.355Z,5.70
2022-11-21T10:59:13.279Z,5.70
2022-11-21T11:01:41.175Z,5.70
2022-11-21T11:04:27.896Z,5.80
2022-11-21T11:06:56.757Z,5.70
2022-11-21T11:09:29.689Z,5.50
2022-11-21T11:12:54.886Z,5.60
2022-11-21T11:15:23.771Z,5.60
2022-11-21T11:17:56.416Z,5.60
2022-11-21T11:20:35.521Z,5.60
2022-11-21T11:23:17.344Z,5.70
2022-11-21T11:25:48.103Z,5.60
2022-11-21T11:28:15.987Z,5.80
2022-11-21T11:30:43.862Z,5.70
2022-11-21T11:33:34.989Z,5.50
2022-11-21T11:36:15.418Z,5.30
2022-11-21T11:38:47.808Z,5.50
2022-11-21T11:41:21.136Z,5.50
2022-11-21T11:44:10.895Z,5.40
2022-11-21T11:46:58.853Z,5.50
2022-11-21T11:49:30.505Z,5.80
2022-11-21T11:52:01.969Z,5.70
2022-11-21T11:54:31.260Z,5.90
2022-11-21T11:56:59.137Z,6.00
2022-11-21T11:59:29.484Z,6.00
2022-11-21T12:01:59.099Z,6.20
2022-11-21T12:04:27.364Z,6.10
2022-11-21T12:09:49.000Z,5.90
2022-11-21T12:12:18.167Z,6.20
2022-11-21T12:15:09.086Z,6.50
2022-11-21T12:17:40.744Z,7.10
2022-11-21T12:20:15.654Z,7.60
2022-11-21T12:22:43.631Z,7.90
2022-11-21T12:25:13.916Z,8.20
2022-11-21T12:27:42.274Z,8.00
2022-11-21T12:30:39.523Z,8.50
2022-11-21T12:33:09.672Z,8.60
2022-11-21T12:35:47.065Z,8.80
2022-11-21T12:38:31.150Z,8.60
2022-11-21T12:41:31.418Z,8.50
2022-11-21T12:44:06.644Z,8.40
2022-11-21T12:47:08.104Z,8.80
2022-11-21T12:49:56.387Z,8.90
2022-11-21T12:52:42.408Z,8.90
2022-11-21T12:55:14.125Z,8.80
2022-11-21T12:57:54.221Z,9.00
2022-11-21T13:00:24.784Z,8.90
2022-11-21T13:03:13.356Z,9.00
2022-11-21T13:05:56.712Z,8.70
2022-11-21T13:08:26.100Z,8.60
2022-11-21T13:11:16.713Z,8.50
2022-11-21T13:13:47.154Z,8.80
2022-11-21T13:16:36.591Z,8.70
2022-11-21T13:19:09.891Z,8.30
2022-11-21T13:21:49.050Z,8.20
2022-11-21T13:25:00.625Z,7.90
2022-11-21T13:27:37.920Z,8.00
2022-11-21T13:30:24.149Z,7.80
2022-11-21T13:32:52.803Z,7.90
2022-11-21T13:39:29.498Z,7.80
2022-11-21T13:42:43.331Z,7.80
2022-11-21T13:45:53.626Z,7.70
2022-11-21T13:48:44.209Z,7.70
2022-11-21T13:51:23.767Z,7.70
2022-11-21T13:54:09.896Z,7.60
2022-11-21T13:57:14.006Z,7.50
2022-11-21T14:00:39.500Z,7.40
2022-11-21T14:07:17.962Z,7.20
2022-11-21T14:09:48.340Z,7.20
2022-11-21T14:12:21.796Z,7.10
2022-11-21T14:14:51.808Z,7.10
2022-11-21T14:17:40.928Z,7.00
2022-11-21T14:20:19.138Z,7.10
2022-11-21T14:22:54.304Z,7.10
2022-11-21T14:25:25.953Z,7.20
2022-11-21T14:27:55.179Z,7.20
2022-11-21T14:30:34.999Z,7.20
2022-11-21T14:33:38.371Z,7.00
2022-11-21T14:36:09.692Z,7.00
2022-11-21T14:38:42.697Z,6.90
2022-11-21T14:42:08.155Z,7.00
2022-11-21T14:44:36.344Z,7.00
2022-11-21T14:47:13.308Z,7.00
2022-11-21T14:49:41.359Z,6.90
2022-11-21T14:52:21.868Z,6.90
2022-11-21T14:55:22.799Z,6.90
2022-11-21T14:57:41.736Z,6.70
2022-11-21T15:00:20.442Z,6.70
2022-11-21T15:02:59.460Z,7.00
2022-11-21T15:05:55.003Z,7.80
2022-11-21T15:11:19.002Z,6.70
2022-11-21T15:14:14.268Z,6.40
2022-11-21T15:16:47.067Z,6.30
2022-11-21T15:19:20.699Z,6.20
2022-11-21T15:21:52.259Z,6.00
2022-11-21T15:24:44.129Z,5.90
2022-11-21T15:27:30.329Z,5.80
2022-11-21T15:30:32.433Z,5.70
2022-11-21T15:36:13.770Z,5.80
2022-11-21T15:38:51.919Z,5.70
2022-11-21T15:42:25.853Z,5.60
2022-11-21T15:45:01.647Z,5.50
2022-11-21T15:47:29.806Z,5.40
2022-11-21T15:49:57.990Z,5.40
2022-11-21T15:52:25.974Z,5.30
2022-11-21T15:54:54.036Z,5.30
2022-11-21T15:57:22.554Z,5.30
2022-11-21T15:59:50.752Z,5.30
2022-11-21T16:02:20.326Z,5.20
2022-11-21T16:04:49.478Z,5.30
2022-11-21T16:07:17.761Z,5.30
2022-11-21T16:09:46.174Z,5.30
2022-11-21T16:12:14.306Z,5.30
2022-11-21T16:14:42.283Z,5.00
2022-11-21T16:17:12.152Z,4.90
2022-11-21T16:19:41.479Z,4.70
2022-11-21T16:22:09.585Z,4.40
2022-11-21T16:24:37.880Z,4.30
2022-11-21T16:27:11.205Z,4.50
2022-11-21T16:29:39.109Z,4.50
2022-11-21T16:32:07.374Z,4.70
2022-11-21T16:34:35.409Z,4.60
2022-11-21T16:37:07.559Z,4.60
2022-11-21T16:39:52.049Z,4.50
2022-11-21T16:42:20.676Z,4.40
2022-11-21T16:44:48.795Z,4.20
2022-11-21T16:47:16.694Z,4.30
2022-11-21T16:49:48.493Z,4.30
2022-11-21T16:52:21.384Z,4.30
2022-11-21T16:54:50.607Z,4.20
2022-11-21T16:57:18.493Z,4.20
2022-11-21T16:59:47.164Z,4.00
2022-11-21T17:02:16.420Z,3.90
2022-11-21T17:04:44.298Z,3.60
2022-11-21T17:07:12.476Z,3.50
2022-11-21T17:09:42.188Z,3.70
2022-11-21T17:12:23.708Z,3.60
2022-11-21T17:14:51.829Z,3.40
2022-11-21T17:17:27.390Z,3.40
2022-11-21T17:23:02.787Z,3.50
2022-11-21T17:25:32.329Z,3.30
2022-11-21T17:28:00.433Z,3.30
2022-11-21T17:30:28.721Z,3.10
2022-11-21T17:32:57.085Z,3.20
2022-11-21T17:39:03.609Z,3.20
2022-11-21T17:41:31.465Z,3.30
2022-11-21T17:43:59.735Z,3.20
2022-11-21T17:46:28.360Z,3.40
2022-11-21T17:48:59.115Z,3.20
2022-11-21T17:51:37.568Z,3.20
2022-11-21T17:54:05.701Z,3.20
2022-11-21T17:56:38.740Z,2.90
2022-11-21T17:59:09.520Z,2.80
2022-11-21T18:01:37.643Z,2.80
2022-11-21T18:04:11.667Z,2.70
2022-11-21T18:06:43.097Z,2.80
2022-11-21T18:09:11.562Z,2.70
2022-11-21T18:11:41.075Z,2.90
2022-11-21T18:14:09.468Z,2.80
2022-11-21T18:16:39.695Z,2.70
2022-11-21T18:19:13.643Z,2.70
2022-11-21T18:21:51.910Z,2.60
2022-11-21T18:24:20.054Z,2.60
2022-11-21T18:26:49.681Z,2.60
2022-11-21T18:29:35.833Z,2.70
2022-11-21T18:32:04.935Z,2.70
2022-11-21T18:34:32.869Z,2.60
2022-11-21T18:37:00.810Z,2.50
2022-11-21T18:39:28.992Z,2.70
2022-11-21T18:41:58.557Z,2.70
2022-11-21T18:44:26.405Z,2.40
2022-11-21T18:46:54.283Z,2.30
2022-11-21T18:49:22.143Z,2.50
2022-11-21T18:51:50.224Z,2.40
2022-11-21T18:54:18.098Z,2.50
2022-11-21T18:56:47.238Z,2.50
2022-11-21T18:59:17.002Z,2.60
2022-11-21T19:01:45.048Z,2.70
2022-11-21T19:04:16.058Z,2.50
2022-11-21T19:06:43.968Z,2.70
2022-11-21T19:09:12.059Z,2.60
2022-11-21T19:11:40.746Z,2.60
2022-11-21T19:14:08.794Z,2.50
2022-11-21T19:16:38.170Z,2.60
2022-11-21T19:21:55.437Z,2.20
2022-11-21T19:24:23.327Z,2.10
2022-11-21T19:26:51.204Z,2.20
2022-11-21T19:29:19.255Z,2.20
2022-11-21T19:31:48.520Z,2.30
2022-11-21T19:34:16.627Z,2.20
2022-11-21T19:36:44.635Z,2.00
2022-11-21T19:39:12.757Z,2.20
2022-11-21T19:41:40.805Z,2.30
2022-11-21T19:44:09.150Z,2.30
2022-11-21T19:46:37.933Z,2.30
2022-11-21T19:49:19.225Z,2.10
2022-11-21T19:51:47.415Z,2.10
2022-11-21T19:54:18.441Z,2.10
2022-11-21T19:56:48.557Z,1.80
2022-11-21T19:59:16.445Z,1.80
2022-11-21T20:01:49.467Z,1.80
2022-11-21T20:04:20.464Z,1.80
2022-11-21T20:06:48.394Z,1.80
2022-11-21T20:09:17.071Z,1.70
2022-11-21T20:11:46.125Z,1.90
2022-11-21T20:14:21.106Z,1.80
2022-11-21T20:16:50.224Z,1.70
2022-11-21T20:19:20.804Z,1.80
2022-11-21T20:21:49.127Z,1.70
2022-11-21T20:24:17.025Z,1.70
2022-11-21T20:26:45.307Z,1.80
2022-11-21T20:29:13.986Z,1.80
2022-11-21T20:31:44.304Z,1.80
2022-11-21T20:34:13.497Z,2.10
2022-11-21T20:36:42.954Z,2.00
2022-11-21T20:39:14.010Z,1.90
2022-11-21T20:41:42.502Z,2.00
2022-11-21T20:44:57.019Z,1.90
2022-11-21T20:47:02.168Z,1.90
2022-11-21T20:49:30.321Z,1.80
2022-11-21T20:54:47.903Z,1.50
2022-11-21T20:57:15.935Z,1.60
2022-11-21T20:59:43.867Z,1.50
2022-11-21T21:02:13.900Z,1.60
2022-11-21T21:04:42.213Z,1.70
2022-11-21T21:07:11.760Z,1.60
2022-11-21T21:09:39.746Z,1.60
2022-11-21T21:12:08.048Z,1.70
2022-11-21T21:14:36.391Z,1.50
2022-11-21T21:17:04.272Z,1.60
2022-11-21T21:19:32.465Z,1.80
2022-11-21T21:22:00.554Z,1.60
2022-11-21T21:24:29.908Z,1.60
2022-11-21T21:26:57.963Z,1.70
2022-11-21T21:29:25.822Z,1.80
2022-11-21T21:31:53.787Z,1.70
2022-11-21T21:34:22.280Z,1.60
2022-11-21T21:36:50.656Z,1.70
2022-11-21T21:39:18.587Z,1.80
2022-11-21T21:41:48.221Z,1.80
2022-11-21T21:44:16.366Z,1.70
2022-11-21T21:46:44.416Z,1.50
2022-11-21T21:49:12.329Z,1.70
2022-11-21T21:51:40.359Z,1.70
2022-11-21T21:54:08.377Z,1.70
2022-11-21T21:56:36.352Z,1.70
2022-11-21T21:59:05.701Z,1.90
2022-11-21T22:01:33.708Z,1.80
2022-11-21T22:04:02.803Z,1.90
2022-11-21T22:06:30.748Z,2.00
2022-11-21T22:08:58.612Z,2.00
2022-11-21T22:11:27.831Z,1.90
2022-11-21T22:13:56.698Z,1.70
2022-11-21T22:16:26.151Z,1.80
2022-11-21T22:18:54.354Z,1.70
2022-11-21T22:21:23.683Z,1.70
2022-11-21T22:24:24.798Z,1.90
2022-11-21T22:26:53.606Z,1.90
2022-11-21T22:29:21.567Z,2.00
2022-11-21T22:31:51.581Z,2.00
2022-11-21T22:34:19.580Z,1.90
2022-11-21T22:36:47.695Z,2.00
2022-11-21T22:39:15.761Z,1.90
2022-11-21T22:41:43.739Z,1.90
2022-11-21T22:44:11.943Z,2.00
2022-11-21T22:46:39.857Z,2.00
2022-11-21T22:49:09.050Z,1.90
2022-11-21T22:51:36.941Z,2.10
2022-11-21T22:54:04.923Z,2.00
2022-11-21T22:56:32.864Z,2.30
2022-11-21T22:59:00.712Z,2.40
2022-11-21T23:01:28.810Z,2.30
2022-11-21T23:03:57.146Z,2.40
2022-11-21T23:06:27.070Z,2.80
2022-11-21T23:08:55.358Z,2.50
2022-11-21T23:11:24.587Z,2.50
2022-11-21T23:13:52.916Z,2.70
2022-11-21T23:16:21.144Z,2.50
2022-11-21T23:18:49.987Z,2.70
2022-11-21T23:21:17.934Z,2.60
2022-11-21T23:23:47.331Z,2.50
2022-11-21T23:26:15.691Z,2.30
2022-11-21T23:28:43.573Z,2.20
2022-11-21T23:31:11.503Z,2.20
2022-11-21T23:33:39.438Z,2.10
2022-11-21T23:36:07.718Z,2.20
2022-11-21T23:38:35.900Z,2.20
2022-11-21T23:41:05.509Z,2.20
2022-11-21T23:43:33.528Z,2.30
2022-11-21T23:46:01.726Z,2.20
2022-11-21T23:48:29.821Z,2.40
2022-11-21T23:50:57.888Z,2.50
2022-11-21T23:53:26.113Z,2.40
2022-11-21T23:55:54.222Z,2.50
2022-11-21T23:58:23.598Z,2.40
